createdAt,value
2022-09-06T00:00:05.493Z,98.37
2022-09-06T00:01:05.478Z,98.47
2022-09-06T00:02:05.463Z,98.57
2022-09-06T00:03:05.568Z,98.57
2022-09-06T00:04:05.511Z,98.37
2022-09-06T00:05:05.428Z,98.16
2022-09-06T00:06:05.413Z,98.07
2022-09-06T00:07:05.401Z,97.96
2022-09-06T00:08:05.389Z,97.96
2022-09-06T00:09:05.379Z,97.86
2022-09-06T00:10:05.365Z,97.96
2022-09-06T00:11:05.353Z,97.96
2022-09-06T00:12:05.340Z,97.86
2022-09-06T00:13:05.334Z,97.91
2022-09-06T00:14:05.316Z,97.76
2022-09-06T00:15:05.303Z,97.91
2022-09-06T00:16:05.329Z,98.01
2022-09-06T00:17:05.273Z,98.11
2022-09-06T00:18:05.263Z,98.21
2022-09-06T00:19:05.251Z,98.32
2022-09-06T00:20:05.241Z,98.52
2022-09-06T00:21:05.232Z,98.32
2022-09-06T00:22:05.210Z,98.41
2022-09-06T00:23:05.201Z,98.32
2022-09-06T00:24:05.187Z,98.21
2022-09-06T00:25:05.177Z,98.11
2022-09-06T00:26:05.163Z,98.01
2022-09-06T00:27:05.149Z,98.11
2022-09-06T00:28:05.133Z,97.80
2022-09-06T00:29:05.123Z,97.91
2022-09-06T00:30:05.108Z,98.11
2022-09-06T00:31:05.145Z,98.32
2022-09-06T00:32:05.093Z,98.41
2022-09-06T00:33:05.074Z,98.41
2022-09-06T00:34:05.076Z,98.62
2022-09-06T00:35:05.053Z,98.62
2022-09-06T00:36:05.037Z,98.62
2022-09-06T00:37:05.023Z,98.62
2022-09-06T00:38:05.022Z,98.62
2022-09-06T00:39:04.997Z,98.62
2022-09-06T00:40:05.051Z,98.52
2022-09-06T00:41:04.976Z,98.41
2022-09-06T00:42:04.963Z,98.52
2022-09-06T00:43:04.946Z,98.62
2022-09-06T00:44:04.931Z,98.72
2022-09-06T00:45:04.923Z,98.72
2022-09-06T00:46:04.996Z,98.77
2022-09-06T00:47:04.895Z,98.86
2022-09-06T00:48:04.882Z,98.97
2022-09-06T00:49:04.869Z,98.77
2022-09-06T00:50:04.872Z,98.86
2022-09-06T00:51:04.847Z,98.92
2022-09-06T00:52:04.849Z,98.77
2022-09-06T00:53:04.824Z,98.86
2022-09-06T00:54:04.807Z,98.86
2022-09-06T00:55:04.793Z,98.86
2022-09-06T00:56:04.782Z,98.77
2022-09-06T00:57:04.770Z,98.86
2022-09-06T00:58:04.757Z,98.86
2022-09-06T00:59:04.749Z,98.86
2022-09-06T01:00:04.741Z,98.97
2022-09-06T01:01:04.756Z,98.97
2022-09-06T01:02:04.844Z,98.86
2022-09-06T01:03:04.704Z,98.97
2022-09-06T01:04:04.688Z,98.86
2022-09-06T01:05:04.675Z,98.97
2022-09-06T01:06:04.660Z,98.77
2022-09-06T01:07:04.646Z,98.77
2022-09-06T01:08:04.626Z,98.77
2022-09-06T01:09:04.621Z,98.77
2022-09-06T01:10:04.608Z,98.77
2022-09-06T01:11:04.597Z,98.77
2022-09-06T01:12:04.582Z,98.86
2022-09-06T01:13:04.573Z,98.86
2022-09-06T01:14:04.557Z,98.77
2022-09-06T01:15:04.554Z,98.86
2022-09-06T01:16:04.633Z,98.86
2022-09-06T01:17:04.518Z,98.97
2022-09-06T01:18:04.505Z,98.97
2022-09-06T01:19:04.497Z,98.97
2022-09-06T01:20:04.487Z,98.86
2022-09-06T01:21:04.467Z,98.86
2022-09-06T01:22:04.457Z,98.97
2022-09-06T01:23:04.451Z,99.07
2022-09-06T01:24:04.475Z,98.97
2022-09-06T01:25:04.426Z,98.56
2022-09-06T01:26:04.407Z,98.36
2022-09-06T01:27:04.397Z,98.26
2022-09-06T01:28:04.383Z,98.26
2022-09-06T01:29:04.369Z,98.26
2022-09-06T01:30:04.356Z,98.36
2022-09-06T01:31:04.434Z,98.46
2022-09-06T01:32:04.332Z,98.46
2022-09-06T01:33:04.318Z,98.36
2022-09-06T01:34:04.301Z,98.46
2022-09-06T01:35:04.295Z,98.36
2022-09-06T01:36:04.280Z,98.46
2022-09-06T01:37:10.307Z,98.46
2022-09-06T01:38:05.286Z,98.56
2022-09-06T01:39:04.248Z,98.56
2022-09-06T01:40:04.280Z,98.46
2022-09-06T01:41:04.219Z,98.41
2022-09-06T01:42:04.206Z,98.41
2022-09-06T01:43:07.868Z,98.41
2022-09-06T01:44:05.219Z,98.30
2022-09-06T01:45:04.170Z,98.41
2022-09-06T01:46:04.206Z,98.50
2022-09-06T01:47:04.142Z,98.71
2022-09-06T01:48:04.128Z,98.81
2022-09-06T01:49:04.121Z,98.81
2022-09-06T01:50:04.107Z,99.02
2022-09-06T01:51:04.089Z,99.02
2022-09-06T01:52:04.081Z,98.91
2022-09-06T01:53:04.069Z,98.91
2022-09-06T01:54:04.059Z,99.02
2022-09-06T01:55:04.042Z,99.02
2022-09-06T01:56:04.032Z,99.22
2022-09-06T01:57:04.016Z,99.11
2022-09-06T01:58:04.007Z,99.02
2022-09-06T01:59:03.988Z,99.22
2022-09-06T02:00:03.980Z,99.22
2022-09-06T02:01:04.060Z,99.02
2022-09-06T02:02:04.094Z,99.02
2022-09-06T02:03:03.944Z,99.02
2022-09-06T02:04:03.935Z,98.91
2022-09-06T02:05:03.915Z,98.71
2022-09-06T02:06:03.903Z,98.81
2022-09-06T02:07:03.889Z,98.81
2022-09-06T02:08:03.877Z,99.02
2022-09-06T02:09:03.867Z,99.02
2022-09-06T02:10:03.851Z,99.02
2022-09-06T02:11:03.842Z,99.02
2022-09-06T02:12:03.826Z,98.81
2022-09-06T02:13:03.812Z,98.71
2022-09-06T02:14:03.801Z,98.61
2022-09-06T02:15:03.788Z,98.61
2022-09-06T02:16:03.775Z,98.71
2022-09-06T02:17:03.824Z,98.81
2022-09-06T02:18:03.755Z,98.71
2022-09-06T02:19:03.741Z,98.61
2022-09-06T02:20:03.727Z,98.61
2022-09-06T02:21:03.714Z,98.81
2022-09-06T02:22:03.704Z,99.02
2022-09-06T02:23:03.688Z,99.02
2022-09-06T02:24:03.679Z,98.91
2022-09-06T02:25:03.709Z,98.81
2022-09-06T02:26:03.654Z,98.91
2022-09-06T02:27:03.643Z,98.91
2022-09-06T02:28:03.636Z,98.71
2022-09-06T02:29:03.616Z,98.61
2022-09-06T02:30:03.605Z,98.71
2022-09-06T02:31:03.682Z,98.91
2022-09-06T02:32:03.587Z,99.02
2022-09-06T02:33:03.569Z,98.91
2022-09-06T02:34:03.550Z,98.81
2022-09-06T02:35:03.543Z,98.71
2022-09-06T02:36:03.532Z,98.81
2022-09-06T02:37:03.514Z,98.91
2022-09-06T02:38:03.506Z,99.11
2022-09-06T02:39:03.493Z,99.32
2022-09-06T02:40:03.550Z,99.42
2022-09-06T02:41:03.465Z,99.32
2022-09-06T02:42:03.457Z,99.42
2022-09-06T02:43:03.441Z,99.32
2022-09-06T02:44:03.434Z,99.22
2022-09-06T02:45:03.415Z,99.37
2022-09-06T02:46:03.430Z,99.47
2022-09-06T02:47:03.393Z,99.57
2022-09-06T02:48:03.375Z,99.77
2022-09-06T02:49:03.366Z,99.88
2022-09-06T02:50:03.353Z,99.88
2022-09-06T02:51:03.336Z,99.88
2022-09-06T02:52:03.327Z,99.98
2022-09-06T02:53:03.313Z,99.98
2022-09-06T02:54:03.301Z,99.88
2022-09-06T02:55:03.293Z,99.88
2022-09-06T02:56:03.277Z,99.88
2022-09-06T02:57:03.263Z,99.88
2022-09-06T02:58:03.251Z,99.98
2022-09-06T02:59:03.244Z,99.98
2022-09-06T03:00:03.225Z,99.93
2022-09-06T03:01:03.286Z,99.98
2022-09-06T03:02:03.271Z,99.98
2022-09-06T03:03:03.189Z,99.99
2022-09-06T03:04:03.179Z,99.99
2022-09-06T03:05:03.171Z,99.99
2022-09-06T03:06:03.152Z,99.99
2022-09-06T03:07:03.139Z,99.99
2022-09-06T03:08:03.128Z,99.99
2022-09-06T03:09:03.118Z,99.99
2022-09-06T03:10:03.099Z,99.99
2022-09-06T03:11:03.086Z,99.99
2022-09-06T03:12:03.082Z,99.98
2022-09-06T03:13:03.065Z,99.98
2022-09-06T03:14:03.053Z,99.88
2022-09-06T03:15:03.038Z,99.77
2022-09-06T03:16:03.022Z,99.88
2022-09-06T03:17:03.099Z,99.88
2022-09-06T03:18:03.000Z,99.88
2022-09-06T03:19:02.990Z,99.67
2022-09-06T03:20:02.976Z,99.57
2022-09-06T03:21:02.960Z,99.57
2022-09-06T03:22:02.948Z,99.57
2022-09-06T03:23:02.936Z,99.57
2022-09-06T03:24:02.927Z,99.47
2022-09-06T03:25:02.923Z,99.47
2022-09-06T03:26:02.897Z,99.47
2022-09-06T03:27:02.887Z,99.47
2022-09-06T03:28:02.873Z,99.47
2022-09-06T03:29:02.858Z,99.47
2022-09-06T03:30:02.850Z,99.37
2022-09-06T03:31:02.920Z,99.37
2022-09-06T03:32:02.820Z,99.37
2022-09-06T03:33:03.150Z,99.37
2022-09-06T03:34:02.799Z,99.57
2022-09-06T03:35:02.788Z,99.67
2022-09-06T03:36:02.778Z,99.77
2022-09-06T03:37:02.765Z,99.77
2022-09-06T03:38:02.745Z,99.67
2022-09-06T03:39:02.735Z,99.47
2022-09-06T03:40:02.826Z,99.47
2022-09-06T03:41:02.712Z,99.67
2022-09-06T03:42:02.697Z,99.57
2022-09-06T03:43:02.691Z,99.67
2022-09-06T03:44:02.675Z,99.67
2022-09-06T03:45:02.667Z,99.77
2022-09-06T03:46:02.780Z,99.88
2022-09-06T03:47:02.634Z,99.98
2022-09-06T03:48:02.628Z,99.99
2022-09-06T03:49:02.608Z,99.99
2022-09-06T03:50:02.597Z,99.99
2022-09-06T03:51:02.589Z,99.99
2022-09-06T03:52:02.581Z,99.99
2022-09-06T03:53:02.560Z,99.99
2022-09-06T03:54:02.548Z,99.99
2022-09-06T03:55:02.534Z,99.99
2022-09-06T03:56:02.524Z,99.88
2022-09-06T03:57:02.516Z,99.77
2022-09-06T03:58:02.496Z,99.88
2022-09-06T03:59:02.483Z,99.98
2022-09-06T04:00:02.474Z,99.99
2022-09-06T04:01:02.536Z,99.99
2022-09-06T04:02:02.520Z,99.99
2022-09-06T04:03:02.436Z,99.99
2022-09-06T04:04:02.429Z,99.99
2022-09-06T04:05:02.425Z,99.99
2022-09-06T04:06:02.396Z,99.99
2022-09-06T04:07:02.384Z,99.99
2022-09-06T04:08:02.379Z,99.99
2022-09-06T04:09:02.363Z,99.99
2022-09-06T04:10:02.355Z,99.99
2022-09-06T04:11:02.344Z,99.99
2022-09-06T04:12:02.321Z,99.99
2022-09-06T04:13:02.307Z,99.99
2022-09-06T04:14:02.301Z,99.99
2022-09-06T04:15:02.285Z,99.99
2022-09-06T04:16:02.277Z,99.99
2022-09-06T04:17:02.326Z,99.99
2022-09-06T04:18:04.974Z,99.99
2022-09-06T04:19:02.242Z,99.98
2022-09-06T04:20:02.236Z,99.98
2022-09-06T04:21:02.215Z,99.98
2022-09-06T04:22:02.201Z,99.99
2022-09-06T04:23:02.182Z,99.99
2022-09-06T04:24:02.169Z,99.99
2022-09-06T04:25:02.163Z,99.98
2022-09-06T04:26:02.155Z,99.99
2022-09-06T04:27:02.131Z,99.99
2022-09-06T04:28:02.124Z,99.99
2022-09-06T04:29:02.107Z,99.99
2022-09-06T04:30:02.107Z,99.99
2022-09-06T04:31:04.670Z,99.99
2022-09-06T04:32:02.138Z,99.98
2022-09-06T04:33:02.058Z,99.98
2022-09-06T04:34:02.055Z,99.98
2022-09-06T04:35:02.062Z,99.99
2022-09-06T04:36:02.021Z,99.99
2022-09-06T04:37:02.010Z,99.88
2022-09-06T04:38:02.010Z,99.67
2022-09-06T04:39:01.986Z,99.62
2022-09-06T04:40:02.088Z,99.72
2022-09-06T04:41:01.963Z,99.82
2022-09-06T04:42:01.951Z,99.99
2022-09-06T04:43:01.937Z,99.99
2022-09-06T04:44:01.918Z,99.99
2022-09-06T04:45:01.915Z,99.99
2022-09-06T04:46:02.076Z,99.99
2022-09-06T04:47:04.320Z,99.99
2022-09-06T04:48:01.876Z,99.99
2022-09-06T04:49:01.856Z,99.99
2022-09-06T04:50:01.854Z,99.99
2022-09-06T04:51:01.841Z,99.99
2022-09-06T04:52:01.822Z,99.99
2022-09-06T04:53:01.808Z,99.99
2022-09-06T04:54:01.799Z,99.99
2022-09-06T04:55:01.785Z,99.99
2022-09-06T04:56:01.769Z,99.99
2022-09-06T04:57:01.765Z,99.99
2022-09-06T04:58:01.766Z,99.99
2022-09-06T04:59:01.733Z,99.99
2022-09-06T05:00:01.719Z,99.92
2022-09-06T05:01:01.782Z,99.92
2022-09-06T05:02:01.751Z,99.99
2022-09-06T05:03:01.685Z,99.99
2022-09-06T05:04:01.669Z,99.99
2022-09-06T05:05:01.665Z,99.82
2022-09-06T05:06:01.643Z,99.72
2022-09-06T05:07:01.630Z,99.72
2022-09-06T05:08:01.624Z,99.72
2022-09-06T05:09:01.606Z,99.92
2022-09-06T05:10:01.600Z,99.99
2022-09-06T05:11:01.580Z,99.99
2022-09-06T05:12:01.567Z,99.99
2022-09-06T05:13:01.560Z,99.99
2022-09-06T05:14:01.547Z,99.99
2022-09-06T05:15:01.543Z,99.92
2022-09-06T05:16:01.601Z,99.82
2022-09-06T05:17:01.503Z,99.99
2022-09-06T05:18:01.493Z,99.99
2022-09-06T05:19:01.486Z,99.99
2022-09-06T05:20:01.471Z,99.99
2022-09-06T05:21:01.459Z,99.98
2022-09-06T05:22:01.445Z,99.88
2022-09-06T05:23:01.430Z,99.67
2022-09-06T05:24:01.430Z,99.67
2022-09-06T05:25:01.402Z,99.77
2022-09-06T05:26:01.386Z,99.77
2022-09-06T05:27:01.379Z,99.67
2022-09-06T05:28:01.363Z,99.77
2022-09-06T05:29:01.357Z,99.67
2022-09-06T05:30:01.338Z,99.67
2022-09-06T05:31:01.329Z,99.67
2022-09-06T05:32:01.399Z,99.57
2022-09-06T05:33:01.299Z,99.52
2022-09-06T05:34:01.299Z,99.42
2022-09-06T05:35:01.273Z,99.42
2022-09-06T05:36:01.272Z,99.11
2022-09-06T05:37:01.252Z,99.02
2022-09-06T05:38:01.238Z,98.81
2022-09-06T05:39:01.233Z,98.66
2022-09-06T05:40:01.330Z,98.56
2022-09-06T05:41:01.223Z,98.36
2022-09-06T05:42:01.186Z,98.26
2022-09-06T05:43:01.186Z,98.05
2022-09-06T05:44:01.160Z,98.05
2022-09-06T05:45:01.150Z,97.75
2022-09-06T05:46:01.210Z,97.55
2022-09-06T05:47:01.132Z,97.65
2022-09-06T05:48:01.111Z,97.55
2022-09-06T05:49:01.114Z,97.40
2022-09-06T05:50:01.083Z,97.40
2022-09-06T05:51:01.069Z,97.60
2022-09-06T05:52:01.088Z,97.40
2022-09-06T05:53:01.053Z,97.20
2022-09-06T05:54:01.036Z,96.84
2022-09-06T05:55:01.018Z,96.44
2022-09-06T05:56:01.002Z,96.14
2022-09-06T05:57:00.992Z,96.09
2022-09-06T05:58:00.979Z,95.99
2022-09-06T05:59:00.967Z,95.74
2022-09-06T06:00:00.957Z,95.43
2022-09-06T06:01:00.972Z,95.13
2022-09-06T06:02:03.318Z,94.83
2022-09-06T06:03:00.930Z,94.18
2022-09-06T06:04:00.902Z,93.97
2022-09-06T06:05:00.890Z,93.52
2022-09-06T06:06:00.882Z,92.57
2022-09-06T06:07:00.863Z,90.50
2022-09-06T06:08:00.850Z,89.75
2022-09-06T06:09:00.847Z,88.49
2022-09-06T06:10:00.825Z,87.95
2022-09-06T06:11:00.816Z,87.64
2022-09-06T06:12:00.801Z,87.88
2022-09-06T06:13:00.798Z,88.04
2022-09-06T06:14:00.775Z,84.17
2022-09-06T06:15:00.761Z,80.32
2022-09-06T06:16:00.781Z,78.03
2022-09-06T06:17:00.848Z,75.85
2022-09-06T06:18:00.722Z,74.57
2022-09-06T06:19:00.709Z,72.60
2022-09-06T06:20:00.698Z,71.77
2022-09-06T06:21:00.688Z,70.29
2022-09-06T06:22:00.674Z,68.76
2022-09-06T06:23:00.661Z,68.82
2022-09-06T06:24:00.649Z,65.07
2022-09-06T06:25:00.638Z,63.28
2022-09-06T06:26:00.622Z,60.70
2022-09-06T06:27:00.607Z,59.25
2022-09-06T06:28:00.590Z,58.50
2022-09-06T06:29:00.583Z,58.65
2022-09-06T06:30:00.569Z,60.50
2022-09-06T06:31:00.560Z,60.80
2022-09-06T06:32:00.691Z,59.72
2022-09-06T06:33:00.529Z,57.68
2022-09-06T06:34:00.519Z,56.73
2022-09-06T06:35:00.518Z,55.61
2022-09-06T06:36:00.494Z,55.91
2022-09-06T06:37:00.481Z,54.60
2022-09-06T06:38:00.474Z,55.11
2022-09-06T06:39:00.456Z,56.01
2022-09-06T06:40:00.510Z,55.29
2022-09-06T06:41:05.827Z,55.51
2022-09-06T06:42:01.443Z,56.13
2022-09-06T06:43:00.405Z,56.88
2022-09-06T06:44:00.398Z,57.60
2022-09-06T06:45:00.376Z,57.48
2022-09-06T06:46:00.479Z,56.85
2022-09-06T06:47:00.355Z,57.35
2022-09-06T06:48:00.333Z,55.51
2022-09-06T06:49:00.328Z,55.09
2022-09-06T06:50:00.325Z,54.60
2022-09-06T06:51:00.308Z,56.53
2022-09-06T06:52:00.293Z,55.02
2022-09-06T06:53:00.271Z,54.30
2022-09-06T06:54:00.274Z,53.85
2022-09-06T06:55:00.259Z,53.23
2022-09-06T06:56:00.234Z,52.71
2022-09-06T06:57:00.224Z,51.79
2022-09-06T06:58:00.212Z,52.36
2022-09-06T06:59:00.209Z,52.19
2022-09-06T07:00:00.194Z,51.77
2022-09-06T07:01:00.299Z,51.23
2022-09-06T07:02:00.419Z,50.12
2022-09-06T07:03:00.156Z,49.90
2022-09-06T07:04:00.148Z,49.40
2022-09-06T07:05:00.419Z,49.82
2022-09-06T07:06:15.402Z,49.90
2022-09-06T07:08:00.115Z,48.96
2022-09-06T07:09:00.079Z,48.66
2022-09-06T07:11:01.077Z,49.38
2022-09-06T07:12:00.040Z,49.90
2022-09-06T07:13:00.035Z,50.21
2022-09-06T07:14:00.011Z,50.41
2022-09-06T07:15:00.001Z,50.90
2022-09-06T07:16:00.039Z,52.26
2022-09-06T07:16:59.974Z,53.82
2022-09-06T07:17:59.961Z,55.26
2022-09-06T07:19:00.180Z,56.57
2022-09-06T07:20:15.945Z,57.00
2022-09-06T07:22:04.518Z,59.49
2022-09-06T07:24:09.003Z,62.49
2022-09-06T07:25:00.902Z,64.64
2022-09-06T07:25:59.859Z,65.05
2022-09-06T07:28:03.900Z,66.83
2022-09-06T07:28:59.821Z,67.46
2022-09-06T07:29:59.814Z,67.86
2022-09-06T07:31:00.103Z,68.26
2022-09-06T07:32:15.181Z,69.09
2022-09-06T07:33:00.845Z,69.43
2022-09-06T07:33:59.762Z,70.23
2022-09-06T07:34:59.743Z,70.86
2022-09-06T07:35:59.752Z,70.96
2022-09-06T07:36:59.717Z,71.59
2022-09-06T07:37:59.708Z,72.19
2022-09-06T07:38:59.702Z,74.03
2022-09-06T07:39:59.738Z,73.83
2022-09-06T07:40:59.662Z,73.86
2022-09-06T07:41:59.654Z,74.90
2022-09-06T07:42:59.650Z,75.84
2022-09-06T07:43:59.643Z,76.64
2022-09-06T07:44:59.625Z,77.04
2022-09-06T07:45:59.605Z,79.94
2022-09-06T07:48:00.613Z,78.94
2022-09-06T07:48:59.569Z,77.60
2022-09-06T07:50:59.550Z,78.50
2022-09-06T07:51:59.543Z,78.10
2022-09-06T07:54:13.263Z,77.84
2022-09-06T07:55:00.528Z,79.74
2022-09-06T07:55:59.479Z,80.35
2022-09-06T07:56:59.468Z,78.74
2022-09-06T07:57:59.451Z,78.74
2022-09-06T07:58:59.439Z,80.24
2022-09-06T07:59:59.436Z,79.71
2022-09-06T08:00:59.510Z,79.71
2022-09-06T08:01:59.456Z,78.67
2022-09-06T08:02:59.402Z,79.06
2022-09-06T08:03:59.384Z,78.47
2022-09-06T08:04:59.442Z,77.86
2022-09-06T08:06:14.749Z,77.76
2022-09-06T08:09:00.483Z,80.13
2022-09-06T08:09:59.313Z,78.53
2022-09-06T08:10:59.295Z,80.13
2022-09-06T08:11:59.281Z,78.93
2022-09-06T08:12:59.274Z,78.03
2022-09-06T08:13:59.258Z,77.03
2022-09-06T08:14:59.253Z,77.43
2022-09-06T08:15:59.286Z,78.29
2022-09-06T08:16:59.219Z,78.99
2022-09-06T08:17:59.207Z,79.29
2022-09-06T08:18:59.195Z,78.69
2022-09-06T08:19:59.182Z,77.29
2022-09-06T08:20:59.178Z,77.19
2022-09-06T08:21:59.161Z,77.66
2022-09-06T08:22:59.146Z,77.45
2022-09-06T08:23:59.134Z,77.66
2022-09-06T08:24:59.121Z,77.06
2022-09-06T08:25:59.109Z,77.06
2022-09-06T08:26:59.088Z,76.95
2022-09-06T08:27:59.078Z,77.66
2022-09-06T08:28:59.066Z,76.65
2022-09-06T08:29:59.057Z,76.95
2022-09-06T08:30:59.040Z,76.35
2022-09-06T08:31:59.096Z,77.45
2022-09-06T08:32:59.018Z,78.22
2022-09-06T08:33:59.007Z,76.82
2022-09-06T08:34:58.990Z,77.22
2022-09-06T08:35:58.976Z,76.95
2022-09-06T08:36:58.964Z,76.65
2022-09-06T08:37:58.952Z,77.56
2022-09-06T08:38:58.942Z,78.36
2022-09-06T08:39:58.998Z,77.75
2022-09-06T08:40:58.915Z,77.36
2022-09-06T08:41:58.900Z,77.49
2022-09-06T08:42:58.895Z,77.49
2022-09-06T08:44:58.990Z,77.89
2022-09-06T08:45:58.852Z,78.09
2022-09-06T08:46:58.998Z,78.39
2022-09-06T08:47:58.841Z,79.65
2022-09-06T08:48:58.814Z,77.95
2022-09-06T08:49:58.804Z,77.99
2022-09-06T08:50:58.785Z,79.09
2022-09-06T08:51:58.777Z,79.49
2022-09-06T08:53:17.209Z,79.09
2022-09-06T08:53:59.800Z,77.09
2022-09-06T08:54:58.748Z,77.09
2022-09-06T08:55:58.732Z,77.29
2022-09-06T08:56:58.710Z,76.76
2022-09-06T08:57:58.713Z,76.56
2022-09-06T08:58:58.692Z,76.15
2022-09-06T08:59:58.674Z,76.35
2022-09-06T09:00:58.834Z,75.76
2022-09-06T09:01:58.683Z,76.12
2022-09-06T09:02:58.640Z,76.82
2022-09-06T09:03:58.624Z,77.02
2022-09-06T09:04:58.613Z,76.12
2022-09-06T09:05:58.606Z,75.22
2022-09-06T09:06:58.587Z,76.18
2022-09-06T09:07:58.588Z,76.08
2022-09-06T09:08:58.569Z,76.18
2022-09-06T09:09:58.557Z,76.58
2022-09-06T09:10:58.534Z,75.62
2022-09-06T09:11:58.523Z,76.62
2022-09-06T09:12:58.511Z,76.32
2022-09-06T09:13:58.510Z,76.02
2022-09-06T09:14:58.493Z,76.02
2022-09-06T09:15:58.507Z,76.72
2022-09-06T09:16:58.459Z,77.06
2022-09-06T09:17:58.447Z,77.36
2022-09-06T09:18:58.437Z,77.06
2022-09-06T09:19:58.424Z,77.25
2022-09-06T09:20:58.431Z,77.36
2022-09-06T09:21:58.399Z,76.95
2022-09-06T09:22:58.378Z,77.95
2022-09-06T09:23:58.375Z,77.75
2022-09-06T09:24:58.352Z,78.45
2022-09-06T09:25:58.348Z,77.75
2022-09-06T09:26:58.327Z,77.66
2022-09-06T09:27:58.318Z,77.29
2022-09-06T09:28:58.308Z,78.19
2022-09-06T09:30:58.353Z,77.99
2022-09-06T09:31:58.337Z,78.13
2022-09-06T09:32:58.263Z,78.43
2022-09-06T09:33:58.240Z,79.33
2022-09-06T09:34:58.231Z,79.13
2022-09-06T09:35:58.215Z,79.13
2022-09-06T09:38:05.046Z,79.06
2022-09-06T09:38:59.216Z,79.47
2022-09-06T09:39:58.242Z,79.77
2022-09-06T09:40:58.156Z,79.86
2022-09-06T09:41:58.137Z,80.41
2022-09-06T09:42:58.123Z,80.80
2022-09-06T09:44:01.170Z,80.71
2022-09-06T09:44:59.138Z,80.80
2022-09-06T09:45:58.096Z,80.91
2022-09-06T09:46:58.147Z,80.61
2022-09-06T09:47:58.066Z,81.11
2022-09-06T09:48:58.072Z,81.30
2022-09-06T09:49:58.043Z,80.91
2022-09-06T09:50:58.030Z,81.04
2022-09-06T09:51:58.014Z,81.85
2022-09-06T09:52:58.004Z,82.35
2022-09-06T09:53:57.989Z,82.95
2022-09-06T09:54:57.980Z,82.85
2022-09-06T09:55:57.964Z,82.95
2022-09-06T09:56:57.946Z,83.19
2022-09-06T09:57:57.940Z,82.39
2022-09-06T09:58:57.924Z,82.89
2022-09-06T09:59:57.908Z,82.99
2022-09-06T10:00:57.983Z,82.99
2022-09-06T10:01:57.892Z,83.29
2022-09-06T10:02:57.894Z,83.69
2022-09-06T10:04:57.857Z,85.03
2022-09-06T10:06:02.809Z,85.13
2022-09-06T10:07:13.105Z,85.94
2022-09-06T10:07:58.850Z,84.93
2022-09-06T10:08:57.803Z,84.13
2022-09-06T10:09:57.782Z,84.13
2022-09-06T10:10:57.774Z,85.63
2022-09-06T10:11:57.779Z,86.24
2022-09-06T10:12:57.744Z,86.44
2022-09-06T10:13:57.749Z,87.64
2022-09-06T10:14:57.736Z,87.44
2022-09-06T10:15:57.743Z,87.44
2022-09-06T10:16:57.699Z,87.54
2022-09-06T10:17:57.680Z,88.14
2022-09-06T10:18:57.669Z,89.14
2022-09-06T10:19:57.654Z,89.75
2022-09-06T10:20:57.645Z,90.05
2022-09-06T10:21:57.627Z,90.05
2022-09-06T10:22:57.616Z,89.69
2022-09-06T10:24:57.592Z,89.79
2022-09-06T10:25:57.588Z,90.19
2022-09-06T10:26:57.578Z,90.99
2022-09-06T10:28:12.216Z,90.99
2022-09-06T10:28:57.546Z,92.30
2022-09-06T10:29:57.530Z,93.20
2022-09-06T10:30:57.533Z,93.30
2022-09-06T10:31:57.513Z,93.80
2022-09-06T10:32:57.492Z,93.60
2022-09-06T10:33:57.479Z,93.80
2022-09-06T10:34:57.466Z,93.80
2022-09-06T10:35:57.462Z,93.85
2022-09-06T10:36:57.447Z,93.55
2022-09-06T10:37:57.435Z,95.05
2022-09-06T10:39:01.561Z,95.25
2022-09-06T10:39:58.498Z,95.86
2022-09-06T10:40:57.392Z,96.86
2022-09-06T10:41:57.378Z,97.56
2022-09-06T10:42:57.364Z,97.61
2022-09-06T10:43:57.358Z,98.01
2022-09-06T10:44:57.349Z,97.61
2022-09-06T10:45:57.329Z,97.31
2022-09-06T10:46:57.443Z,95.60
2022-09-06T10:47:57.304Z,95.60
2022-09-06T10:48:57.292Z,95.60
2022-09-06T10:49:57.275Z,95.60
2022-09-06T10:50:57.264Z,93.69
2022-09-06T10:51:57.254Z,94.15
2022-09-06T10:52:57.249Z,94.95
2022-09-06T10:53:57.233Z,93.65
2022-09-06T10:54:57.226Z,94.15
2022-09-06T10:56:01.265Z,93.85
2022-09-06T10:56:57.187Z,94.31
2022-09-06T10:59:57.166Z,91.45
2022-09-06T11:00:57.135Z,90.65
2022-09-06T11:01:57.275Z,91.65
2022-09-06T11:04:00.309Z,90.91
2022-09-06T11:05:58.109Z,92.51
2022-09-06T11:06:57.066Z,92.77
2022-09-06T11:08:58.356Z,87.86
2022-09-06T11:09:57.024Z,88.86
2022-09-06T11:10:57.008Z,90.52
2022-09-06T11:11:57.000Z,89.12
2022-09-06T11:12:56.991Z,88.68
2022-09-06T11:13:56.973Z,87.27
2022-09-06T11:14:56.971Z,87.37
2022-09-06T11:15:56.990Z,87.03
2022-09-06T11:16:56.934Z,87.43
2022-09-06T11:17:56.921Z,86.83
2022-09-06T11:18:56.905Z,85.53
2022-09-06T11:19:56.901Z,85.13
2022-09-06T11:20:56.886Z,85.39
2022-09-06T11:21:56.870Z,86.49
2022-09-06T11:22:56.864Z,85.49
2022-09-06T11:23:56.842Z,86.79
2022-09-06T11:24:56.833Z,86.69
2022-09-06T11:25:56.816Z,85.85
2022-09-06T11:26:56.809Z,87.25
2022-09-06T11:27:58.217Z,86.05
2022-09-06T11:28:56.783Z,84.45
2022-09-06T11:29:56.768Z,85.35
2022-09-06T11:30:56.789Z,86.25
2022-09-06T11:32:56.731Z,87.01
2022-09-06T11:34:00.725Z,85.61
2022-09-06T11:34:56.707Z,86.01
2022-09-06T11:35:56.690Z,86.51
2022-09-06T11:36:56.674Z,86.21
2022-09-06T11:37:56.666Z,85.81
2022-09-06T11:38:56.657Z,85.71
2022-09-06T11:40:56.630Z,84.81
2022-09-06T11:41:56.615Z,84.61
2022-09-06T11:42:56.604Z,84.71
2022-09-06T11:43:56.596Z,85.31
2022-09-06T11:44:56.579Z,85.81
2022-09-06T11:45:56.620Z,86.61
2022-09-06T11:46:56.632Z,84.01
2022-09-06T11:47:56.544Z,84.81
2022-09-06T11:48:56.537Z,83.11
2022-09-06T11:49:56.518Z,84.41
2022-09-06T11:50:56.519Z,84.71
2022-09-06T11:51:56.492Z,84.31
2022-09-06T11:52:56.477Z,83.45
2022-09-06T11:53:56.464Z,85.55
2022-09-06T11:54:56.452Z,84.85
2022-09-06T11:55:56.440Z,85.45
2022-09-06T11:56:56.459Z,84.35
2022-09-06T11:57:56.415Z,84.65
2022-09-06T11:58:56.402Z,85.15
2022-09-06T11:59:56.392Z,86.25
2022-09-06T12:00:56.393Z,85.59
2022-09-06T12:01:56.376Z,86.15
2022-09-06T12:04:05.788Z,86.35
2022-09-06T12:05:00.262Z,85.25
2022-09-06T12:05:56.316Z,84.19
2022-09-06T12:06:56.303Z,84.09
2022-09-06T12:07:56.295Z,84.89
2022-09-06T12:08:56.281Z,84.39
2022-09-06T12:09:56.265Z,85.29
2022-09-06T12:10:56.249Z,84.69
2022-09-06T12:11:56.243Z,84.59
2022-09-06T12:12:56.228Z,84.89
2022-09-06T12:13:56.217Z,84.89
2022-09-06T12:14:56.200Z,84.19
2022-09-06T12:15:56.244Z,83.69
2022-09-06T12:16:56.171Z,84.99
2022-09-06T12:17:56.167Z,83.69
2022-09-06T12:18:56.144Z,83.89
2022-09-06T12:19:56.137Z,83.59
2022-09-06T12:20:56.130Z,83.79
2022-09-06T12:21:56.110Z,83.29
2022-09-06T12:22:56.106Z,82.99
2022-09-06T12:23:56.099Z,83.39
2022-09-06T12:24:56.070Z,82.99
2022-09-06T12:25:56.078Z,83.19
2022-09-06T12:26:56.172Z,83.19
2022-09-06T12:27:56.038Z,83.59
2022-09-06T12:28:56.033Z,83.99
2022-09-06T12:29:56.012Z,83.69
2022-09-06T12:30:56.115Z,83.49
2022-09-06T12:31:56.000Z,83.59
2022-09-06T12:32:55.988Z,84.69
2022-09-06T12:33:55.961Z,82.89
2022-09-06T12:36:55.924Z,80.89
2022-09-06T12:37:55.908Z,80.69
2022-09-06T12:38:55.898Z,81.29
2022-09-06T12:39:55.927Z,81.49
2022-09-06T12:40:55.885Z,82.29
2022-09-06T12:41:55.863Z,81.99
2022-09-06T12:42:55.857Z,82.29
2022-09-06T12:43:55.841Z,81.79
2022-09-06T12:44:55.828Z,83.29
2022-09-06T12:45:55.817Z,82.69
2022-09-06T12:46:55.798Z,82.69
2022-09-06T12:47:55.793Z,83.49
2022-09-06T12:48:55.776Z,83.69
2022-09-06T12:49:55.762Z,84.29
2022-09-06T12:50:55.740Z,84.59
2022-09-06T12:51:55.735Z,84.39
2022-09-06T12:52:55.724Z,84.39
2022-09-06T12:53:55.711Z,84.09
2022-09-06T12:54:55.691Z,82.99
2022-09-06T12:55:55.681Z,83.99
2022-09-06T12:56:55.681Z,83.99
2022-09-06T12:57:55.658Z,84.29
2022-09-06T12:58:55.665Z,84.59
2022-09-06T12:59:55.643Z,85.29
2022-09-06T13:00:55.618Z,85.13
2022-09-06T13:01:55.678Z,83.53
2022-09-06T13:02:55.706Z,84.33
2022-09-06T13:03:55.594Z,82.83
2022-09-06T13:04:55.579Z,82.63
2022-09-06T13:05:55.580Z,83.23
2022-09-06T13:06:55.559Z,82.93
2022-09-06T13:07:55.544Z,82.53
2022-09-06T13:08:55.531Z,83.03
2022-09-06T13:09:55.511Z,82.13
2022-09-06T13:10:55.505Z,82.97
2022-09-06T13:11:55.491Z,83.47
2022-09-06T13:12:55.485Z,83.57
2022-09-06T13:13:55.469Z,84.07
2022-09-06T13:14:55.446Z,83.57
2022-09-06T13:15:55.500Z,84.47
2022-09-06T13:16:55.425Z,82.07